Time;durP1;ratioP1;P1;durP2;ratioP2;P2;SDS_P1;SDS_P2;PMS_P1;PMS_P2;Temp;Humidity;BMP_temperature;BMP_pressure;BME280_temperature;BME280_humidity;BME280_pressure;Samples;Min_cycle;Max_cycle;Signal;HPM_P1;HPM_P2
2021/01/24 00:01:45;;;;;;;25.75;20.25;;;4.60;92.90;;;;;;4882721;29;20024;-68
2021/01/24 00:04:11;;;;;;;27.02;21.13;;;4.60;93.00;;;;;;4899308;29;20029;-68
2021/01/24 00:06:36;;;;;;;25.63;20.63;;;4.60;93.00;;;;;;4898460;29;20063;-68
2021/01/24 00:09:03;;;;;;;27.85;22.67;;;4.60;93.10;;;;;;4899293;29;20028;-68
2021/01/24 00:11:28;;;;;;;24.83;21.17;;;4.60;93.20;;;;;;4881636;29;20025;-67
2021/01/24 00:13:54;;;;;;;27.67;22.10;;;4.70;93.20;;;;;;4899236;29;20025;-67
2021/01/24 00:16:19;;;;;;;27.25;21.27;;;4.70;93.10;;;;;;4898888;29;20021;-67
2021/01/24 00:18:45;;;;;;;26.23;20.48;;;4.60;93.10;;;;;;4898539;29;20453;-68
2021/01/24 00:21:10;;;;;;;26.65;23.45;;;4.60;93.20;;;;;;4898977;29;20470;-67
2021/01/24 00:23:36;;;;;;;31.00;23.05;;;4.60;93.20;;;;;;4898761;29;20020;-67
2021/01/24 00:26:01;;;;;;;29.38;22.52;;;4.50;93.20;;;;;;4881628;29;20549;-67
2021/01/24 00:28:27;;;;;;;22.67;19.35;;;4.50;93.20;;;;;;4898594;29;20048;-67
2021/01/24 00:30:52;;;;;;;30.02;23.45;;;4.50;93.30;;;;;;4899142;29;20020;-67
2021/01/24 00:33:18;;;;;;;28.20;24.42;;;4.40;93.40;;;;;;4897992;29;20060;-66
2021/01/24 00:35:43;;;;;;;29.55;22.10;;;4.40;93.40;;;;;;4898793;29;20027;-67
2021/01/24 00:38:10;;;;;;;26.13;22.40;;;4.40;93.50;;;;;;4898680;29;20123;-67
2021/01/24 00:40:36;;;;;;;27.15;23.25;;;4.30;93.40;;;;;;4897802;29;20144;-67
2021/01/24 00:43:01;;;;;;;29.35;22.92;;;4.30;93.60;;;;;;4898554;29;20511;-67
2021/01/24 00:45:27;;;;;;;29.85;20.50;;;4.20;93.60;;;;;;4898241;29;20085;-67
2021/01/24 00:47:53;;;;;;;28.52;22.77;;;4.30;93.70;;;;;;4897907;29;20033;-66
2021/01/24 00:50:18;;;;;;;26.20;21.50;;;4.30;93.70;;;;;;4898109;29;20095;-65
2021/01/24 00:52:44;;;;;;;24.55;21.08;;;4.30;93.50;;;;;;4898525;29;20492;-67
2021/01/24 00:55:10;;;;;;;31.27;21.52;;;4.20;93.40;;;;;;4897729;29;20056;-70
2021/01/24 00:57:36;;;;;;;26.80;20.08;;;4.20;93.50;;;;;;4882258;29;20055;-67
2021/01/24 01:00:04;;;;;;;24.98;19.20;;;4.30;93.50;;;;;;4881700;29;20041;-68
2021/01/24 01:02:29;;;;;;;22.92;17.98;;;4.30;93.50;;;;;;4897851;29;20107;-66
2021/01/24 01:04:55;;;;;;;20.13;16.17;;;4.30;93.40;;;;;;4898871;29;20131;-66
2021/01/24 01:07:20;;;;;;;21.08;16.20;;;4.30;93.20;;;;;;4896858;29;20039;-66
2021/01/24 01:09:46;;;;;;;21.35;17.33;;;4.20;93.20;;;;;;4896139;29;20028;-66
2021/01/24 01:12:11;;;;;;;20.42;16.25;;;4.20;93.30;;;;;;4879854;29;20039;-66
2021/01/24 01:14:37;;;;;;;22.52;16.42;;;4.10;93.30;;;;;;4896150;29;20033;-66
2021/01/24 01:17:02;;;;;;;22.63;16.48;;;4.00;93.30;;;;;;4896924;29;20484;-66
2021/01/24 01:19:28;;;;;;;30.63;18.50;;;4.10;93.50;;;;;;4896589;29;20469;-67
2021/01/24 01:21:54;;;;;;;23.38;18.83;;;4.10;93.50;;;;;;4896223;29;20051;-67
2021/01/24 01:24:19;;;;;;;25.30;18.13;;;4.10;93.40;;;;;;4896809;29;20021;-66
2021/01/24 01:26:45;;;;;;;23.77;17.38;;;4.10;93.50;;;;;;4897760;29;20378;-66
2021/01/24 01:29:10;;;;;;;23.75;18.67;;;4.00;93.40;;;;;;4880379;29;20044;-67
2021/01/24 01:31:36;;;;;;;24.00;17.52;;;3.90;93.50;;;;;;4897520;29;20068;-66
2021/01/24 01:34:01;;;;;;;21.83;17.30;;;3.90;93.50;;;;;;4897910;29;20429;-67
2021/01/24 01:36:27;;;;;;;24.90;16.80;;;3.90;93.60;;;;;;4897173;29;20052;-67
2021/01/24 01:38:52;;;;;;;20.42;16.23;;;3.90;93.70;;;;;;4897671;29;20032;-67
2021/01/24 01:41:18;;;;;;;22.35;15.35;;;3.90;93.60;;;;;;4880773;29;20029;-67
2021/01/24 01:43:43;;;;;;;21.50;15.45;;;3.90;93.60;;;;;;4898163;29;20028;-67
2021/01/24 01:46:19;;;;;;;28.20;16.70;;;3.90;93.70;;;;;;4899572;29;20096;-67
2021/01/24 01:48:45;;;;;;;23.23;15.05;;;3.90;93.70;;;;;;4905707;29;20044;-67
2021/01/24 01:51:10;;;;;;;20.83;14.63;;;3.90;93.70;;;;;;4880366;29;20025;-67
2021/01/24 01:53:37;;;;;;;23.05;15.15;;;3.90;93.70;;;;;;4899676;29;20058;-66
2021/01/24 01:56:02;;;;;;;22.90;14.77;;;3.90;93.60;;;;;;4916036;29;20035;-66
2021/01/24 01:58:28;;;;;;;18.42;13.35;;;3.80;93.60;;;;;;4915571;29;20036;-66
2021/01/24 02:00:53;;;;;;;24.80;15.40;;;3.80;93.60;;;;;;4916426;29;20032;-66
2021/01/24 02:03:27;;;;;;;18.35;12.77;;;3.80;93.60;;;;;;4916220;29;20039;-66
2021/01/24 02:05:56;;;;;;;19.88;12.88;;;3.80;93.60;;;;;;4897997;29;20068;-66
2021/01/24 02:08:54;;;;;;;16.92;11.55;;;3.70;93.60;;;;;;4880405;29;20490;-67
2021/01/24 02:11:39;;;;;;;16.42;13.73;;;3.70;93.60;;;;;;4880328;29;20045;-66
2021/01/24 02:14:29;;;;;;;17.55;12.52;;;3.70;93.80;;;;;;4880726;29;20029;-67
2021/01/24 02:16:57;;;;;;;19.55;11.93;;;3.80;93.80;;;;;;4897553;29;20055;-67
2021/01/24 02:19:33;;;;;;;15.45;11.02;;;3.80;93.70;;;;;;4896462;29;20036;-67
2021/01/24 02:21:59;;;;;;;14.40;10.05;;;3.80;93.70;;;;;;4897484;29;20028;-67
2021/01/24 02:24:27;;;;;;;17.60;10.50;;;3.80;93.70;;;;;;4897189;29;20033;-67
2021/01/24 02:27:05;;;;;;;13.07;9.50;;;3.70;93.60;;;;;;4896766;29;20103;-67
2021/01/24 02:29:48;;;;;;;13.38;9.60;;;3.70;93.70;;;;;;4896903;29;20512;-66
2021/01/24 02:32:17;;;;;;;19.15;10.55;;;3.80;93.70;;;;;;4896727;29;20036;-66
2021/01/24 02:34:45;;;;;;;14.95;9.68;;;3.80;93.90;;;;;;4897479;29;20025;-66
2021/01/24 02:37:11;;;;;;;11.25;8.35;;;3.80;93.90;;;;;;4897440;29;20021;-66
2021/01/24 02:39:38;;;;;;;14.10;8.95;;;3.80;93.70;;;;;;4896226;29;20143;-67
2021/01/24 02:42:04;;;;;;;14.32;9.13;;;3.80;93.70;;;;;;4897300;29;20546;-67
2021/01/24 02:44:31;;;;;;;11.88;8.90;;;3.80;93.70;;;;;;4897020;29;20024;-66
2021/01/24 02:46:57;;;;;;;13.18;8.68;;;3.70;93.70;;;;;;4896669;29;20029;-67
2021/01/24 02:49:28;;;;;;;15.73;10.10;;;3.80;93.90;;;;;;4879973;29;20450;-67
2021/01/24 02:51:53;;;;;;;11.40;7.72;;;3.80;93.90;;;;;;4880388;29;20048;-67
2021/01/24 02:54:20;;;;;;;12.75;8.02;;;3.90;93.70;;;;;;4884257;29;20044;-66
2021/01/24 02:56:46;;;;;;;11.98;7.47;;;3.90;93.70;;;;;;4897243;29;20478;-67
2021/01/24 02:59:12;;;;;;;10.57;7.20;;;3.90;93.70;;;;;;4897133;29;20044;-67
2021/01/24 03:01:37;;;;;;;13.10;7.80;;;4.00;93.70;;;;;;4896347;29;20523;-67
2021/01/24 03:04:03;;;;;;;11.20;7.70;;;4.00;93.70;;;;;;4897050;29;20037;-67
2021/01/24 03:06:29;;;;;;;12.15;7.90;;;4.10;93.80;;;;;;4897245;29;20048;-66
2021/01/24 03:08:55;;;;;;;13.77;8.38;;;4.20;93.80;;;;;;4898429;29;20420;-66
2021/01/24 03:11:21;;;;;;;14.43;7.82;;;4.20;93.70;;;;;;4900196;29;20034;-66
2021/01/24 03:14:01;;;;;;;10.32;7.20;;;4.30;93.60;;;;;;4900691;29;20047;-66
2021/01/24 03:16:28;;;;;;;10.52;8.05;;;4.20;93.50;;;;;;4899702;29;20025;-66
2021/01/24 03:18:55;;;;;;;11.93;7.72;;;4.20;93.60;;;;;;4900320;29;20099;-66
2021/01/24 03:21:22;;;;;;;13.52;8.90;;;4.20;93.60;;;;;;4899438;29;20095;-66
2021/01/24 03:23:49;;;;;;;11.95;8.23;;;4.30;93.70;;;;;;4900194;29;20533;-66
2021/01/24 03:26:15;;;;;;;9.98;7.82;;;4.30;93.70;;;;;;4900173;29;20045;-67
2021/01/24 03:28:40;;;;;;;14.68;8.65;;;4.30;93.60;;;;;;4899128;29;20576;-67
2021/01/24 03:31:07;;;;;;;12.38;8.60;;;4.30;93.70;;;;;;4900096;29;20381;-67
2021/01/24 03:33:34;;;;;;;13.88;8.55;;;4.30;93.70;;;;;;4898544;29;20028;-67
2021/01/24 03:35:59;;;;;;;14.50;9.23;;;4.30;93.60;;;;;;4899467;29;20076;-67
2021/01/24 03:38:25;;;;;;;12.80;9.18;;;4.30;93.60;;;;;;4899578;29;20024;-67
2021/01/24 03:40:51;;;;;;;13.50;10.15;;;4.30;93.70;;;;;;4900043;29;20024;-67
2021/01/24 03:43:16;;;;;;;15.07;10.27;;;4.30;93.70;;;;;;4899244;29;20032;-67
2021/01/24 03:45:42;;;;;;;14.75;9.70;;;4.30;93.70;;;;;;4899561;29;20111;-67
2021/01/24 03:48:07;;;;;;;18.75;10.90;;;4.30;93.80;;;;;;4899851;29;20031;-67
2021/01/24 03:50:33;;;;;;;15.63;10.27;;;4.30;93.70;;;;;;4898796;29;20067;-67
2021/01/24 03:52:58;;;;;;;15.45;12.40;;;4.30;93.80;;;;;;4899738;29;20025;-67
2021/01/24 03:55:24;;;;;;;18.52;12.50;;;4.20;93.80;;;;;;4899158;29;20131;-67
2021/01/24 03:57:49;;;;;;;16.60;11.90;;;4.20;93.80;;;;;;4882123;29;20017;-68
2021/01/24 04:00:15;;;;;;;15.38;11.68;;;4.10;93.80;;;;;;4899561;29;20080;-67
2021/01/24 04:02:41;;;;;;;18.95;12.27;;;4.10;93.90;;;;;;4899293;29;20072;-68
2021/01/24 04:05:07;;;;;;;17.05;12.07;;;4.10;93.90;;;;;;4898924;29;20037;-67
2021/01/24 04:07:33;;;;;;;20.63;12.65;;;4.10;94.00;;;;;;4899113;29;20021;-67
2021/01/24 04:09:58;;;;;;;19.95;12.63;;;4.10;94.00;;;;;;4899184;29;20521;-68
2021/01/24 04:12:24;;;;;;;17.65;12.20;;;4.10;94.00;;;;;;4898537;29;20076;-67
2021/01/24 04:14:49;;;;;;;15.43;12.18;;;4.10;94.10;;;;;;4899448;29;20032;-67
2021/01/24 04:17:15;;;;;;;20.23;13.40;;;4.20;94.10;;;;;;4899288;29;20021;-67
2021/01/24 04:19:40;;;;;;;16.95;13.05;;;4.10;94.00;;;;;;4897406;29;20032;-67
2021/01/24 04:22:06;;;;;;;15.25;12.43;;;4.00;94.00;;;;;;4899366;29;20056;-67
2021/01/24 04:24:31;;;;;;;17.25;12.73;;;4.00;94.10;;;;;;4898252;29;20506;-68
2021/01/24 04:26:57;;;;;;;18.58;12.40;;;4.00;94.20;;;;;;4898994;29;20028;-67
2021/01/24 04:29:22;;;;;;;18.98;13.15;;;4.00;94.30;;;;;;4898533;29;20455;-68
2021/01/24 04:31:48;;;;;;;18.35;12.43;;;4.00;94.30;;;;;;4898532;29;20029;-67
2021/01/24 04:34:13;;;;;;;21.35;12.65;;;4.00;94.30;;;;;;4899033;29;20029;-67
2021/01/24 04:36:40;;;;;;;17.42;12.82;;;4.00;94.30;;;;;;4898845;29;20386;-67
2021/01/24 04:39:05;;;;;;;17.73;12.18;;;3.90;94.30;;;;;;4898104;29;20478;-67
2021/01/24 04:41:35;;;;;;;17.75;12.40;;;3.90;94.30;;;;;;4898547;29;20035;-67
2021/01/24 04:44:03;;;;;;;17.42;12.32;;;3.90;94.30;;;;;;4898963;29;20462;-67
2021/01/24 04:46:31;;;;;;;19.75;11.38;;;3.90;94.40;;;;;;4897827;29;20032;-67
2021/01/24 04:48:58;;;;;;;19.33;12.50;;;3.90;94.40;;;;;;4898590;29;20032;-67
2021/01/24 04:51:23;;;;;;;18.08;12.00;;;3.80;94.40;;;;;;4898310;29;20040;-68
2021/01/24 04:53:50;;;;;;;19.25;11.85;;;3.90;94.50;;;;;;4882147;29;20490;-68
2021/01/24 04:56:16;;;;;;;16.73;12.00;;;3.80;94.40;;;;;;4898498;29;20023;-67
2021/01/24 04:58:42;;;;;;;19.80;12.73;;;3.80;94.40;;;;;;4898113;29;20025;-67
2021/01/24 05:01:08;;;;;;;18.23;11.57;;;3.70;94.50;;;;;;4897988;29;20032;-67
2021/01/24 05:03:35;;;;;;;16.50;11.82;;;3.80;94.50;;;;;;4898210;29;20028;-67
2021/01/24 05:06:00;;;;;;;17.02;11.40;;;3.70;94.50;;;;;;4898488;29;20020;-67
2021/01/24 05:08:30;;;;;;;20.60;11.45;;;3.80;94.50;;;;;;4897231;29;20386;-67
2021/01/24 05:11:01;;;;;;;15.93;11.75;;;3.80;94.50;;;;;;4898312;29;20025;-67
2021/01/24 05:13:26;;;;;;;18.45;12.23;;;3.80;94.50;;;;;;4896841;29;20028;-68
2021/01/24 05:15:58;;;;;;;15.32;11.43;;;3.80;94.50;;;;;;4897538;29;20029;-67
2021/01/24 05:18:26;;;;;;;22.55;11.88;;;3.80;94.60;;;;;;4898041;29;20032;-67
2021/01/24 05:20:52;;;;;;;15.73;10.55;;;3.70;94.60;;;;;;4897552;29;20166;-67
2021/01/24 05:23:22;;;;;;;16.95;11.73;;;3.70;94.60;;;;;;4897899;29;20028;-67
2021/01/24 05:25:49;;;;;;;18.33;11.88;;;3.70;94.60;;;;;;4896828;29;20560;-67
2021/01/24 05:28:21;;;;;;;13.60;11.10;;;3.70;94.70;;;;;;4895946;29;20116;-67
2021/01/24 05:30:47;;;;;;;17.35;11.43;;;3.70;94.70;;;;;;4897998;29;20025;-68
2021/01/24 05:33:18;;;;;;;15.75;11.30;;;3.70;94.70;;;;;;4897968;29;20492;-67
2021/01/24 05:35:48;;;;;;;15.20;10.30;;;3.70;94.70;;;;;;4897378;29;20029;-67
2021/01/24 05:38:30;;;;;;;20.25;12.43;;;3.60;94.70;;;;;;4897736;29;20044;-68
2021/01/24 05:40:59;;;;;;;;;;;3.60;94.70;;;;;;4898756;29;20050;-68
2021/01/24 05:43:26;;;;;;;15.50;10.50;;;3.60;94.80;;;;;;4896852;29;19911;-67
2021/01/24 05:45:52;;;;;;;18.80;12.38;;;3.50;94.80;;;;;;4897777;29;20185;-67
2021/01/24 05:48:19;;;;;;;14.45;10.02;;;3.50;94.90;;;;;;4897324;29;20029;-67
2021/01/24 05:50:45;;;;;;;15.23;10.85;;;3.50;94.90;;;;;;4896954;29;20036;-67
2021/01/24 05:53:13;;;;;;;17.75;11.10;;;3.40;94.90;;;;;;4897750;29;20489;-67
2021/01/24 05:55:39;;;;;;;16.25;10.15;;;3.40;95.00;;;;;;4897263;29;20044;-67
2021/01/24 05:58:22;;;;;;;15.32;10.50;;;3.50;95.10;;;;;;4897118;29;20037;-68
2021/01/24 06:00:49;;;;;;;15.00;10.07;;;3.40;95.00;;;;;;4897676;29;20036;-67
2021/01/24 06:03:16;;;;;;;14.57;9.75;;;3.50;95.00;;;;;;4896859;29;20032;-67
2021/01/24 06:05:42;;;;;;;11.50;8.73;;;3.50;95.00;;;;;;4897049;29;20037;-66
2021/01/24 06:08:09;;;;;;;13.68;8.55;;;3.50;95.00;;;;;;4900864;29;20160;-66
2021/01/24 06:10:36;;;;;;;13.55;8.68;;;3.40;94.90;;;;;;4896662;29;20533;-67
2021/01/24 06:13:02;;;;;;;14.30;8.85;;;3.50;95.00;;;;;;4897438;29;20037;-68
2021/01/24 06:15:30;;;;;;;11.07;8.30;;;3.40;95.00;;;;;;4897219;29;20092;-67
2021/01/24 06:18:00;;;;;;;14.30;8.95;;;3.40;95.10;;;;;;4896860;29;20044;-67
2021/01/24 06:20:41;;;;;;;15.15;8.55;;;3.30;95.10;;;;;;4897434;29;20040;-68
2021/01/24 06:23:21;;;;;;;12.10;7.88;;;3.30;95.10;;;;;;4897510;29;20051;-67
2021/01/24 06:25:50;;;;;;;10.98;7.82;;;3.30;95.10;;;;;;4896898;29;20386;-67
2021/01/24 06:28:31;;;;;;;12.32;7.05;;;3.30;95.10;;;;;;4897293;29;20065;-68
2021/01/24 06:30:57;;;;;;;12.05;7.50;;;3.30;95.20;;;;;;4897509;29;20029;-67
2021/01/24 06:33:23;;;;;;;11.40;6.65;;;3.30;95.20;;;;;;4896502;29;20043;-67
2021/01/24 06:36:01;;;;;;;10.20;7.20;;;3.30;95.20;;;;;;4913263;29;20025;-67
2021/01/24 06:38:27;;;;;;;12.30;6.45;;;3.20;95.20;;;;;;4898106;29;20029;-67
2021/01/24 06:40:52;;;;;;;11.18;6.70;;;3.30;95.30;;;;;;4916320;29;20039;-67
2021/01/24 06:43:37;;;;;;;12.80;6.47;;;3.20;95.30;;;;;;4901996;29;20056;-67
2021/01/24 06:46:03;;;;;;;9.55;7.07;;;3.30;95.40;;;;;;4919394;29;20036;-67
2021/01/24 06:48:47;;;;;;;8.15;6.22;;;3.40;95.40;;;;;;4919330;29;20385;-67
2021/01/24 06:51:33;;;;;;;8.20;6.57;;;3.40;95.30;;;;;;4882064;29;20386;-67
2021/01/24 06:54:07;;;;;;;12.20;6.68;;;3.50;95.30;;;;;;4881254;29;20056;-67
2021/01/24 06:56:41;;;;;;;12.45;6.70;;;3.60;95.20;;;;;;4881686;29;20033;-67
2021/01/24 06:59:07;;;;;;;8.73;6.40;;;3.60;95.20;;;;;;4881929;29;20057;-67
2021/01/24 07:01:34;;;;;;;9.27;6.43;;;3.70;95.10;;;;;;4881959;29;20497;-66
2021/01/24 07:04:25;;;;;;;7.28;5.55;;;3.70;95.10;;;;;;4919481;29;20071;-67
2021/01/24 07:06:57;;;;;;;13.23;6.88;;;3.70;95.00;;;;;;4912363;29;20032;-67
2021/01/24 07:09:29;;;;;;;13.77;6.60;;;3.80;95.00;;;;;;4881336;29;20037;-66
2021/01/24 07:11:55;;;;;;;11.07;6.45;;;3.80;95.00;;;;;;4888893;29;20033;-67
2021/01/24 07:14:35;;;;;;;9.63;7.22;;;3.90;94.90;;;;;;4891721;29;20039;-67
2021/01/24 07:17:12;;;;;;;8.25;6.50;;;3.90;94.80;;;;;;4900571;29;20033;-67
2021/01/24 07:19:52;;;;;;;8.40;5.80;;;3.90;94.70;;;;;;4909663;29;20044;-69
2021/01/24 07:22:21;;;;;;;9.02;6.07;;;3.90;94.70;;;;;;4899513;29;20075;-67
2021/01/24 07:24:48;;;;;;;8.13;5.57;;;3.90;94.70;;;;;;4900305;29;20040;-67
2021/01/24 07:27:15;;;;;;;10.68;6.25;;;3.80;94.50;;;;;;4900031;29;20033;-68
2021/01/24 07:29:42;;;;;;;8.48;6.13;;;3.70;94.60;;;;;;4899007;29;20601;-68
2021/01/24 07:32:13;;;;;;;10.35;6.35;;;3.70;94.70;;;;;;4900144;29;20469;-67
2021/01/24 07:34:39;;;;;;;9.43;6.32;;;3.60;94.70;;;;;;4892146;29;20408;-67
2021/01/24 07:37:06;;;;;;;8.68;6.35;;;3.50;94.80;;;;;;4901385;29;20111;-67
2021/01/24 07:39:32;;;;;;;8.70;6.30;;;3.50;94.90;;;;;;4899490;29;20038;-68
2021/01/24 07:41:59;;;;;;;9.23;5.60;;;3.50;95.00;;;;;;4899319;29;20028;-68
2021/01/24 07:44:24;;;;;;;9.35;5.53;;;3.50;94.90;;;;;;4899454;29;20031;-67
2021/01/24 07:46:50;;;;;;;10.38;6.32;;;3.40;94.90;;;;;;4899933;29;20028;-67
2021/01/24 07:49:17;;;;;;;10.85;6.35;;;3.40;95.00;;;;;;4899206;29;20466;-67
2021/01/24 07:51:42;;;;;;;10.38;6.15;;;3.40;95.00;;;;;;4896588;29;20108;-67
2021/01/24 07:54:09;;;;;;;7.20;5.28;;;3.40;95.00;;;;;;4898411;29;20410;-67
2021/01/24 07:56:35;;;;;;;8.77;6.03;;;3.40;95.00;;;;;;4898746;29;20107;-67
2021/01/24 07:59:02;;;;;;;7.22;6.00;;;3.30;95.00;;;;;;4899471;29;20087;-67
2021/01/24 08:01:27;;;;;;;10.02;6.10;;;3.40;95.10;;;;;;4899328;29;20028;-67
2021/01/24 08:03:53;;;;;;;7.35;5.60;;;3.40;95.00;;;;;;4899001;29;20533;-67
2021/01/24 08:06:19;;;;;;;9.65;6.40;;;3.40;95.00;;;;;;4899188;29;20043;-68
2021/01/24 08:08:46;;;;;;;9.63;6.13;;;3.30;95.10;;;;;;4899300;29;20036;-67
2021/01/24 08:11:13;;;;;;;7.78;5.68;;;3.30;95.10;;;;;;4898975;29;20033;-67
2021/01/24 08:13:40;;;;;;;9.70;6.15;;;3.30;95.10;;;;;;4898955;29;20028;-67
2021/01/24 08:16:17;;;;;;;10.15;6.38;;;3.20;95.00;;;;;;4899333;29;20028;-67
2021/01/24 08:18:46;;;;;;;7.28;5.95;;;3.20;95.10;;;;;;4881841;29;20079;-67
2021/01/24 08:21:13;;;;;;;10.35;6.45;;;3.20;95.10;;;;;;4899253;29;20040;-67
2021/01/24 08:23:39;;;;;;;9.98;6.85;;;3.30;95.10;;;;;;4898389;29;20052;-67
2021/01/24 08:26:06;;;;;;;11.32;6.43;;;3.30;95.10;;;;;;4901510;29;20078;-67
2021/01/24 08:28:32;;;;;;;11.13;6.63;;;3.30;95.10;;;;;;4906208;29;20055;-67
2021/01/24 08:31:01;;;;;;;10.23;7.10;;;3.30;95.10;;;;;;4898476;29;20040;-67
2021/01/24 08:33:27;;;;;;;9.40;6.75;;;3.40;95.40;;;;;;4898568;29;20024;-68
2021/01/24 08:35:53;;;;;;;10.27;6.93;;;3.40;95.20;;;;;;4902385;29;20501;-67
2021/01/24 08:38:20;;;;;;;8.85;6.80;;;3.50;95.20;;;;;;4897918;29;20029;-67
2021/01/24 08:40:47;;;;;;;11.25;7.57;;;3.50;95.10;;;;;;4898545;29;20028;-66
2021/01/24 08:43:16;;;;;;;10.45;6.97;;;3.50;95.00;;;;;;4897665;29;20025;-67
2021/01/24 08:45:41;;;;;;;11.65;6.80;;;3.40;95.00;;;;;;4898629;29;20090;-68
2021/01/24 08:48:13;;;;;;;73.43;10.90;;;3.40;95.10;;;;;;4917376;29;20025;-66
2021/01/24 08:50:39;;;;;;;;;;;3.40;95.20;;;;;;4916442;29;20028;-67
2021/01/24 08:53:07;;;;;;;90.68;10.77;;;3.40;95.20;;;;;;4898195;29;19935;-68
2021/01/24 08:55:46;;;;;;;12.10;6.65;;;3.40;95.20;;;;;;4897926;29;20136;-67
2021/01/24 08:58:25;;;;;;;12.35;7.50;;;3.40;95.30;;;;;;4898536;29;20482;-68
2021/01/24 09:01:09;;;;;;;7.65;6.20;;;3.40;95.30;;;;;;4911145;29;20099;-68
2021/01/24 09:03:35;;;;;;;7.13;5.68;;;3.40;95.30;;;;;;4916906;29;20028;-68
2021/01/24 09:06:19;;;;;;;7.43;5.38;;;3.40;95.30;;;;;;4884577;29;20073;-66
2021/01/24 09:08:52;;;;;;;10.07;5.93;;;3.40;95.30;;;;;;4898228;29;20047;-68
2021/01/24 09:11:18;;;;;;;10.23;7.88;;;3.50;95.30;;;;;;4898001;29;20031;-67
2021/01/24 09:13:43;;;;;;;9.90;6.45;;;3.50;95.30;;;;;;4897664;29;20478;-66
2021/01/24 09:16:09;;;;;;;7.82;5.50;;;3.50;95.30;;;;;;4881351;29;20028;-69
2021/01/24 09:18:35;;;;;;;8.18;5.10;;;3.50;95.20;;;;;;4897720;29;20060;-71
2021/01/24 09:21:03;;;;;;;15.68;7.15;;;3.60;95.20;;;;;;4913678;29;20032;-69
2021/01/24 09:23:28;;;;;;;8.93;5.85;;;3.60;95.20;;;;;;4915955;29;20036;-67
2021/01/24 09:25:54;;;;;;;6.78;4.63;;;3.60;95.20;;;;;;4901217;29;20557;-68
2021/01/24 09:28:20;;;;;;;9.00;4.85;;;3.70;95.20;;;;;;4910093;29;20401;-70
2021/01/24 09:30:45;;;;;;;7.85;4.10;;;3.70;95.20;;;;;;4898005;29;20512;-67
2021/01/24 09:33:11;;;;;;;7.20;3.58;;;3.80;95.30;;;;;;4906883;29;20024;-66
2021/01/24 09:35:36;;;;;;;5.03;3.13;;;3.80;95.30;;;;;;4914178;29;20060;-67
2021/01/24 09:38:02;;;;;;;3.85;3.00;;;3.90;95.20;;;;;;4898354;29;20048;-67
2021/01/24 09:40:27;;;;;;;7.63;3.90;;;3.90;95.20;;;;;;4897220;29;20104;-67
2021/01/24 09:42:53;;;;;;;5.68;3.05;;;3.90;95.10;;;;;;4891158;29;20550;-67
2021/01/24 09:45:18;;;;;;;5.10;2.88;;;3.90;95.00;;;;;;4897684;29;20043;-67
2021/01/24 09:47:44;;;;;;;6.25;3.30;;;3.90;94.90;;;;;;4897753;29;20490;-67
2021/01/24 09:50:10;;;;;;;6.55;3.10;;;4.00;94.90;;;;;;4897059;29;20559;-67
2021/01/24 09:52:36;;;;;;;5.10;3.30;;;3.90;94.80;;;;;;4897626;29;20109;-66
2021/01/24 09:55:03;;;;;;;4.63;3.05;;;4.00;94.80;;;;;;4897263;29;20143;-68
2021/01/24 09:57:29;;;;;;;4.70;3.28;;;3.90;94.70;;;;;;4880500;29;20031;-66
2021/01/24 09:59:54;;;;;;;5.10;2.95;;;4.00;94.70;;;;;;4897565;29;20033;-68
2021/01/24 10:02:20;;;;;;;4.55;3.10;;;4.00;94.70;;;;;;4879889;29;20076;-67
2021/01/24 10:04:45;;;;;;;3.35;3.00;;;4.10;94.60;;;;;;4897750;29;20025;-67
2021/01/24 10:07:11;;;;;;;5.95;3.50;;;4.10;94.60;;;;;;4897517;29;20374;-65
2021/01/24 10:09:36;;;;;;;3.63;2.95;;;4.10;94.60;;;;;;4896449;29;20148;-65
2021/01/24 10:12:02;;;;;;;4.60;2.70;;;4.10;94.60;;;;;;4897656;29;20112;-66
2021/01/24 10:14:27;;;;;;;4.53;2.95;;;4.20;94.60;;;;;;4897363;29;20033;-66
2021/01/24 10:16:53;;;;;;;6.57;3.03;;;4.30;94.60;;;;;;4897961;29;20027;-66
2021/01/24 10:19:19;;;;;;;6.10;2.75;;;4.30;94.50;;;;;;4901029;29;20036;-67
2021/01/24 10:21:44;;;;;;;4.05;2.75;;;4.40;94.50;;;;;;4901169;29;20025;-66
2021/01/24 10:24:10;;;;;;;3.50;3.08;;;4.40;94.50;;;;;;4900731;29;20033;-66
2021/01/24 10:26:35;;;;;;;8.82;2.90;;;4.40;94.50;;;;;;4900907;29;20029;-66
2021/01/24 10:29:01;;;;;;;6.85;2.95;;;4.50;94.40;;;;;;4900947;29;20039;-66
2021/01/24 10:31:27;;;;;;;5.55;2.33;;;4.50;94.40;;;;;;4900256;29;20077;-66
2021/01/24 10:33:52;;;;;;;5.18;2.45;;;4.50;94.40;;;;;;4901013;29;20024;-66
2021/01/24 10:36:18;;;;;;;4.38;2.50;;;4.50;94.30;;;;;;4900552;29;20068;-67
2021/01/24 10:38:49;;;;;;;7.25;2.90;;;4.50;94.30;;;;;;4900604;29;20021;-66
2021/01/24 10:41:14;;;;;;;4.65;2.72;;;4.60;94.30;;;;;;4901235;29;20052;-66
2021/01/24 10:43:40;;;;;;;6.88;3.08;;;4.60;94.30;;;;;;4900571;29;20441;-66
2021/01/24 10:46:05;;;;;;;7.35;2.88;;;4.70;94.30;;;;;;4900238;29;20028;-66
2021/01/24 10:48:31;;;;;;;4.35;3.13;;;4.70;94.20;;;;;;4900424;29;20405;-66
2021/01/24 10:50:56;;;;;;;5.97;2.72;;;4.80;94.20;;;;;;4900594;29;20052;-66
2021/01/24 10:53:22;;;;;;;4.05;2.80;;;4.80;94.10;;;;;;4899777;29;20095;-66
2021/01/24 10:55:47;;;;;;;4.32;2.33;;;4.80;94.10;;;;;;4916331;29;20402;-66
2021/01/24 10:58:13;;;;;;;7.22;2.53;;;4.90;94.10;;;;;;4903755;29;20535;-66
2021/01/24 11:00:38;;;;;;;4.43;3.15;;;4.90;94.00;;;;;;4903224;29;20566;-66
2021/01/24 11:03:04;;;;;;;8.10;3.47;;;4.90;93.80;;;;;;4910974;29;20023;-66
2021/01/24 11:05:30;;;;;;;5.78;3.20;;;4.90;93.80;;;;;;4899468;29;20385;-65
2021/01/24 11:07:55;;;;;;;6.82;3.15;;;5.00;93.80;;;;;;4899954;29;20148;-66
2021/01/24 11:10:21;;;;;;;6.55;2.70;;;5.00;93.70;;;;;;4898781;29;20051;-66
2021/01/24 11:12:46;;;;;;;2.65;1.88;;;5.00;93.50;;;;;;4899730;29;20402;-66
2021/01/24 11:15:12;;;;;;;4.93;2.10;;;5.00;93.50;;;;;;4902917;29;20437;-67
2021/01/24 11:17:39;;;;;;;6.45;2.40;;;5.00;93.50;;;;;;4895907;29;20037;-67
2021/01/24 11:20:11;;;;;;;6.97;2.78;;;5.00;93.50;;;;;;4898476;29;20080;-66
2021/01/24 11:22:37;;;;;;;;;;;5.10;93.60;;;;;;4899198;29;20104;-67
2021/01/24 11:25:04;;;;;;;3.78;2.03;;;5.20;93.50;;;;;;4898484;29;20002;-68
2021/01/24 11:27:29;;;;;;;6.28;2.25;;;5.30;93.40;;;;;;4886770;29;20069;-68
2021/01/24 11:29:55;;;;;;;7.25;3.15;;;5.40;93.40;;;;;;4886548;29;20112;-68
2021/01/24 11:32:22;;;;;;;5.60;2.30;;;5.50;93.30;;;;;;4898296;29;20024;-68
2021/01/24 11:34:47;;;;;;;5.32;2.15;;;5.70;93.30;;;;;;4899513;29;20029;-68
2021/01/24 11:37:13;;;;;;;5.03;2.00;;;5.70;93.10;;;;;;4889798;29;20025;-67
2021/01/24 11:39:38;;;;;;;5.90;2.10;;;5.80;92.30;;;;;;4887277;29;20439;-68
2021/01/24 11:42:04;;;;;;;5.65;2.10;;;5.80;92.20;;;;;;4882491;29;20025;-67
2021/01/24 11:44:30;;;;;;;2.85;2.20;;;5.90;92.00;;;;;;4865984;29;20727;-69
2021/01/24 11:46:55;;;;;;;8.15;2.13;;;6.00;91.90;;;;;;4888978;29;20029;-68
2021/01/24 11:49:21;;;;;;;3.97;2.03;;;6.10;91.80;;;;;;4880017;29;20124;-68
2021/01/24 11:51:47;;;;;;;6.50;2.50;;;6.10;91.70;;;;;;4884545;29;20120;-69
2021/01/24 11:54:12;;;;;;;4.22;2.00;;;6.20;91.70;;;;;;4872839;29;20045;-69
2021/01/24 11:56:39;;;;;;;7.68;2.35;;;6.30;91.60;;;;;;4880047;29;20077;-69
2021/01/24 11:59:05;;;;;;;5.57;1.70;;;6.40;91.30;;;;;;4881710;29;20024;-66
2021/01/24 12:01:30;;;;;;;5.30;1.83;;;6.40;91.10;;;;;;4880604;29;20033;-67
2021/01/24 12:03:56;;;;;;;2.05;1.40;;;6.40;90.80;;;;;;4880133;29;20029;-68
2021/01/24 12:06:21;;;;;;;5.50;2.00;;;6.30;90.50;;;;;;4883391;29;20568;-67
2021/01/24 12:08:47;;;;;;;6.07;2.13;;;6.30;90.60;;;;;;4896898;29;20047;-69
2021/01/24 12:11:13;;;;;;;7.25;1.83;;;6.40;90.60;;;;;;4882059;29;20025;-69
2021/01/24 12:13:39;;;;;;;5.57;2.00;;;6.40;90.40;;;;;;4880308;29;20025;-70
2021/01/24 12:16:05;;;;;;;6.63;2.78;;;6.60;90.30;;;;;;4885272;29;20036;-67
2021/01/24 12:18:30;;;;;;;4.85;2.00;;;6.70;90.20;;;;;;4893560;29;20032;-68
2021/01/24 12:20:56;;;;;;;6.88;2.58;;;6.90;89.80;;;;;;4899261;29;20474;-65
2021/01/24 12:23:22;;;;;;;7.13;2.38;;;7.10;88.90;;;;;;4892477;29;20029;-67
2021/01/24 12:25:49;;;;;;;7.93;2.25;;;7.20;87.80;;;;;;4899089;29;20386;-69
2021/01/24 12:28:14;;;;;;;4.32;2.00;;;7.20;87.60;;;;;;4896758;29;20032;-68
2021/01/24 12:30:40;;;;;;;5.43;2.00;;;7.20;86.90;;;;;;4889400;29;20033;-67
2021/01/24 12:33:10;;;;;;;4.22;1.92;;;7.10;86.80;;;;;;4880156;29;20052;-68
2021/01/24 12:35:37;;;;;;;4.82;2.08;;;7.00;87.00;;;;;;4879960;29;20051;-67
2021/01/24 12:38:02;;;;;;;4.95;2.58;;;7.10;86.70;;;;;;4879588;29;20081;-66
2021/01/24 12:40:28;;;;;;;8.20;2.25;;;7.20;86.40;;;;;;4878764;29;20037;-66
2021/01/24 12:42:53;;;;;;;6.22;2.75;;;7.30;85.60;;;;;;4884461;29;20025;-67
2021/01/24 12:45:19;;;;;;;9.18;2.88;;;7.40;84.70;;;;;;4862396;29;20033;-67
2021/01/24 12:47:44;;;;;;;5.43;2.35;;;7.40;84.90;;;;;;4880246;29;20025;-67
2021/01/24 12:50:10;;;;;;;5.20;2.80;;;7.50;84.90;;;;;;4879839;29;20095;-66